sensor_id;sensor_type;location;lat;lon;timestamp;P1;durP1;ratioP1;P2;durP2;ratioP2
6973;SDS011;3527;52.376;8.990;2024-02-14T00:00:50;3.17;;;2.33;;
6973;SDS011;3527;52.376;8.990;2024-02-14T00:03:17;3.13;;;2.30;;
6973;SDS011;3527;52.376;8.990;2024-02-14T00:05:44;4.77;;;2.70;;
6973;SDS011;3527;52.376;8.990;2024-02-14T00:08:11;5.87;;;2.50;;
6973;SDS011;3527;52.376;8.990;2024-02-14T00:10:39;3.57;;;2.63;;
6973;SDS011;3527;52.376;8.990;2024-02-14T00:13:06;6.27;;;3.07;;
6973;SDS011;3527;52.376;8.990;2024-02-14T00:15:34;4.53;;;2.67;;
6973;SDS011;3527;52.376;8.990;2024-02-14T00:18:01;3.70;;;2.50;;
6973;SDS011;3527;52.376;8.990;2024-02-14T00:20:28;5.10;;;2.73;;
6973;SDS011;3527;52.376;8.990;2024-02-14T00:22:55;4.57;;;2.60;;
6973;SDS011;3527;52.376;8.990;2024-02-14T00:25:21;5.83;;;3.13;;
6973;SDS011;3527;52.376;8.990;2024-02-14T00:27:48;5.87;;;2.63;;
6973;SDS011;3527;52.376;8.990;2024-02-14T00:30:16;3.77;;;3.10;;
6973;SDS011;3527;52.376;8.990;2024-02-14T00:32:42;4.30;;;2.97;;
6973;SDS011;3527;52.376;8.990;2024-02-14T00:35:09;5.03;;;2.90;;
6973;SDS011;3527;52.376;8.990;2024-02-14T00:37:36;4.20;;;2.80;;
6973;SDS011;3527;52.376;8.990;2024-02-14T00:40:04;5.43;;;2.63;;
6973;SDS011;3527;52.376;8.990;2024-02-14T00:42:30;4.63;;;2.40;;
6973;SDS011;3527;52.376;8.990;2024-02-14T00:44:57;4.40;;;2.50;;
6973;SDS011;3527;52.376;8.990;2024-02-14T00:47:24;5.20;;;3.10;;
6973;SDS011;3527;52.376;8.990;2024-02-14T00:49:50;3.47;;;2.40;;
6973;SDS011;3527;52.376;8.990;2024-02-14T00:52:18;6.60;;;3.10;;
6973;SDS011;3527;52.376;8.990;2024-02-14T00:54:48;3.43;;;2.70;;
6973;SDS011;3527;52.376;8.990;2024-02-14T00:57:14;4.77;;;2.77;;
6973;SDS011;3527;52.376;8.990;2024-02-14T00:59:41;4.47;;;2.50;;
6973;SDS011;3527;52.376;8.990;2024-02-14T01:02:08;5.17;;;2.70;;
6973;SDS011;3527;52.376;8.990;2024-02-14T01:04:35;3.87;;;2.37;;
6973;SDS011;3527;52.376;8.990;2024-02-14T01:07:03;4.57;;;2.93;;
6973;SDS011;3527;52.376;8.990;2024-02-14T01:09:30;5.27;;;2.83;;
6973;SDS011;3527;52.376;8.990;2024-02-14T01:11:56;5.47;;;2.70;;
6973;SDS011;3527;52.376;8.990;2024-02-14T01:14:23;5.13;;;2.67;;
6973;SDS011;3527;52.376;8.990;2024-02-14T01:16:50;9.07;;;2.93;;
6973;SDS011;3527;52.376;8.990;2024-02-14T01:19:17;4.70;;;2.83;;
6973;SDS011;3527;52.376;8.990;2024-02-14T01:21:48;5.47;;;2.60;;
6973;SDS011;3527;52.376;8.990;2024-02-14T01:24:15;7.73;;;2.70;;
6973;SDS011;3527;52.376;8.990;2024-02-14T01:26:42;5.37;;;3.00;;
6973;SDS011;3527;52.376;8.990;2024-02-14T01:29:09;5.73;;;3.03;;
6973;SDS011;3527;52.376;8.990;2024-02-14T01:31:36;5.07;;;3.10;;
6973;SDS011;3527;52.376;8.990;2024-02-14T01:34:03;5.23;;;3.03;;
6973;SDS011;3527;52.376;8.990;2024-02-14T01:36:30;9.03;;;3.57;;
6973;SDS011;3527;52.376;8.990;2024-02-14T01:38:57;4.80;;;3.23;;
6973;SDS011;3527;52.376;8.990;2024-02-14T01:41:23;5.47;;;3.07;;
6973;SDS011;3527;52.376;8.990;2024-02-14T01:43:50;4.47;;;3.07;;
6973;SDS011;3527;52.376;8.990;2024-02-14T01:46:17;3.93;;;3.10;;
6973;SDS011;3527;52.376;8.990;2024-02-14T01:48:43;4.13;;;3.30;;
6973;SDS011;3527;52.376;8.990;2024-02-14T01:51:11;6.53;;;3.67;;
6973;SDS011;3527;52.376;8.990;2024-02-14T01:53:38;7.10;;;3.93;;
6973;SDS011;3527;52.376;8.990;2024-02-14T01:56:04;7.70;;;3.77;;
6973;SDS011;3527;52.376;8.990;2024-02-14T01:58:32;4.83;;;3.20;;
6973;SDS011;3527;52.376;8.990;2024-02-14T02:01:00;6.10;;;3.40;;
6973;SDS011;3527;52.376;8.990;2024-02-14T02:03:27;6.17;;;3.20;;
6973;SDS011;3527;52.376;8.990;2024-02-14T02:05:54;4.83;;;3.90;;
6973;SDS011;3527;52.376;8.990;2024-02-14T02:08:22;7.87;;;4.07;;
6973;SDS011;3527;52.376;8.990;2024-02-14T02:10:48;4.53;;;3.60;;
6973;SDS011;3527;52.376;8.990;2024-02-14T02:13:16;5.60;;;3.47;;
6973;SDS011;3527;52.376;8.990;2024-02-14T02:15:43;4.87;;;3.60;;
6973;SDS011;3527;52.376;8.990;2024-02-14T02:18:13;5.97;;;3.60;;
6973;SDS011;3527;52.376;8.990;2024-02-14T02:20:41;6.07;;;3.23;;
6973;SDS011;3527;52.376;8.990;2024-02-14T02:23:12;6.00;;;3.47;;
6973;SDS011;3527;52.376;8.990;2024-02-14T02:25:42;6.40;;;3.60;;
6973;SDS011;3527;52.376;8.990;2024-02-14T02:28:09;7.83;;;3.40;;
6973;SDS011;3527;52.376;8.990;2024-02-14T02:30:36;6.40;;;3.60;;
6973;SDS011;3527;52.376;8.990;2024-02-14T02:33:03;5.77;;;3.63;;
6973;SDS011;3527;52.376;8.990;2024-02-14T02:35:30;5.27;;;3.30;;
6973;SDS011;3527;52.376;8.990;2024-02-14T02:37:57;7.80;;;3.53;;
6973;SDS011;3527;52.376;8.990;2024-02-14T02:40:24;6.37;;;3.17;;
6973;SDS011;3527;52.376;8.990;2024-02-14T02:42:51;4.73;;;3.20;;
6973;SDS011;3527;52.376;8.990;2024-02-14T02:45:18;5.30;;;3.00;;
6973;SDS011;3527;52.376;8.990;2024-02-14T02:47:45;7.90;;;3.50;;
6973;SDS011;3527;52.376;8.990;2024-02-14T02:50:11;8.30;;;3.90;;
6973;SDS011;3527;52.376;8.990;2024-02-14T02:52:38;5.10;;;2.87;;
6973;SDS011;3527;52.376;8.990;2024-02-14T02:55:06;6.90;;;2.90;;
6973;SDS011;3527;52.376;8.990;2024-02-14T02:57:33;5.37;;;3.23;;
6973;SDS011;3527;52.376;8.990;2024-02-14T03:00:03;4.37;;;3.17;;
6973;SDS011;3527;52.376;8.990;2024-02-14T03:02:32;6.93;;;3.80;;
6973;SDS011;3527;52.376;8.990;2024-02-14T03:04:59;6.17;;;2.80;;
6973;SDS011;3527;52.376;8.990;2024-02-14T03:07:26;6.53;;;3.00;;
6973;SDS011;3527;52.376;8.990;2024-02-14T03:09:53;6.10;;;2.97;;
6973;SDS011;3527;52.376;8.990;2024-02-14T03:12:19;5.70;;;3.13;;
6973;SDS011;3527;52.376;8.990;2024-02-14T03:14:47;6.47;;;3.30;;
6973;SDS011;3527;52.376;8.990;2024-02-14T03:17:13;7.13;;;3.50;;
6973;SDS011;3527;52.376;8.990;2024-02-14T03:19:40;5.73;;;3.00;;
6973;SDS011;3527;52.376;8.990;2024-02-14T03:22:07;5.90;;;3.40;;
6973;SDS011;3527;52.376;8.990;2024-02-14T03:24:35;4.83;;;3.00;;
6973;SDS011;3527;52.376;8.990;2024-02-14T03:27:03;5.17;;;3.30;;
6973;SDS011;3527;52.376;8.990;2024-02-14T03:29:33;5.03;;;3.20;;
6973;SDS011;3527;52.376;8.990;2024-02-14T03:32:02;7.83;;;3.93;;
6973;SDS011;3527;52.376;8.990;2024-02-14T03:34:34;6.40;;;2.97;;
6973;SDS011;3527;52.376;8.990;2024-02-14T03:37:02;6.60;;;3.73;;
6973;SDS011;3527;52.376;8.990;2024-02-14T03:39:29;6.70;;;3.33;;
6973;SDS011;3527;52.376;8.990;2024-02-14T03:41:57;5.30;;;3.30;;
6973;SDS011;3527;52.376;8.990;2024-02-14T03:44:25;6.27;;;3.70;;
6973;SDS011;3527;52.376;8.990;2024-02-14T03:46:51;8.10;;;4.37;;
6973;SDS011;3527;52.376;8.990;2024-02-14T03:49:18;9.40;;;5.20;;
6973;SDS011;3527;52.376;8.990;2024-02-14T03:51:46;8.40;;;4.37;;
6973;SDS011;3527;52.376;8.990;2024-02-14T03:54:13;9.87;;;4.37;;
6973;SDS011;3527;52.376;8.990;2024-02-14T03:56:39;5.77;;;3.97;;
6973;SDS011;3527;52.376;8.990;2024-02-14T03:59:07;5.33;;;3.73;;
6973;SDS011;3527;52.376;8.990;2024-02-14T04:01:34;7.23;;;3.70;;
6973;SDS011;3527;52.376;8.990;2024-02-14T04:04:01;7.37;;;3.90;;
6973;SDS011;3527;52.376;8.990;2024-02-14T04:06:28;5.33;;;3.50;;
6973;SDS011;3527;52.376;8.990;2024-02-14T04:08:58;6.37;;;3.50;;
6973;SDS011;3527;52.376;8.990;2024-02-14T04:11:25;7.93;;;3.83;;
6973;SDS011;3527;52.376;8.990;2024-02-14T04:13:53;6.47;;;4.07;;
6973;SDS011;3527;52.376;8.990;2024-02-14T04:16:40;5.90;;;4.50;;
6973;SDS011;3527;52.376;8.990;2024-02-14T04:19:07;5.77;;;4.33;;
6973;SDS011;3527;52.376;8.990;2024-02-14T04:21:57;6.37;;;3.90;;
6973;SDS011;3527;52.376;8.990;2024-02-14T04:24:44;9.27;;;4.40;;
6973;SDS011;3527;52.376;8.990;2024-02-14T04:27:22;8.23;;;4.57;;
6973;SDS011;3527;52.376;8.990;2024-02-14T04:29:50;8.83;;;4.23;;
6973;SDS011;3527;52.376;8.990;2024-02-14T04:32:36;8.20;;;4.37;;
6973;SDS011;3527;52.376;8.990;2024-02-14T04:35:23;7.67;;;4.97;;
6973;SDS011;3527;52.376;8.990;2024-02-14T04:37:50;10.10;;;5.37;;
6973;SDS011;3527;52.376;8.990;2024-02-14T04:40:39;9.33;;;5.10;;
6973;SDS011;3527;52.376;8.990;2024-02-14T04:43:06;7.20;;;4.57;;
6973;SDS011;3527;52.376;8.990;2024-02-14T04:45:32;8.97;;;4.57;;
6973;SDS011;3527;52.376;8.990;2024-02-14T04:47:59;7.43;;;5.03;;
6973;SDS011;3527;52.376;8.990;2024-02-14T04:50:26;8.20;;;5.50;;
6973;SDS011;3527;52.376;8.990;2024-02-14T04:52:53;8.23;;;5.23;;
6973;SDS011;3527;52.376;8.990;2024-02-14T04:55:20;9.43;;;7.10;;
6973;SDS011;3527;52.376;8.990;2024-02-14T04:57:46;8.43;;;5.20;;
6973;SDS011;3527;52.376;8.990;2024-02-14T05:00:13;12.73;;;5.57;;
6973;SDS011;3527;52.376;8.990;2024-02-14T05:02:40;11.23;;;4.90;;
6973;SDS011;3527;52.376;8.990;2024-02-14T05:05:07;10.53;;;4.93;;
6973;SDS011;3527;52.376;8.990;2024-02-14T05:07:35;10.73;;;5.77;;
6973;SDS011;3527;52.376;8.990;2024-02-14T05:10:01;9.97;;;5.20;;
6973;SDS011;3527;52.376;8.990;2024-02-14T05:12:28;10.87;;;5.60;;
6973;SDS011;3527;52.376;8.990;2024-02-14T05:14:55;7.73;;;4.97;;
6973;SDS011;3527;52.376;8.990;2024-02-14T05:17:21;7.43;;;5.33;;
6973;SDS011;3527;52.376;8.990;2024-02-14T05:19:50;9.17;;;5.73;;
6973;SDS011;3527;52.376;8.990;2024-02-14T05:22:17;11.60;;;6.63;;
6973;SDS011;3527;52.376;8.990;2024-02-14T05:24:44;9.97;;;6.03;;
6973;SDS011;3527;52.376;8.990;2024-02-14T05:27:12;11.33;;;6.63;;
6973;SDS011;3527;52.376;8.990;2024-02-14T05:29:39;9.17;;;6.00;;
6973;SDS011;3527;52.376;8.990;2024-02-14T05:32:06;9.63;;;6.73;;
6973;SDS011;3527;52.376;8.990;2024-02-14T05:34:32;8.67;;;6.03;;
6973;SDS011;3527;52.376;8.990;2024-02-14T05:37:00;9.73;;;6.33;;
6973;SDS011;3527;52.376;8.990;2024-02-14T05:39:27;8.27;;;6.10;;
6973;SDS011;3527;52.376;8.990;2024-02-14T05:41:53;12.23;;;7.43;;
6973;SDS011;3527;52.376;8.990;2024-02-14T05:44:20;8.33;;;6.00;;
6973;SDS011;3527;52.376;8.990;2024-02-14T05:46:49;9.13;;;5.73;;
6973;SDS011;3527;52.376;8.990;2024-02-14T05:49:15;7.80;;;6.60;;
6973;SDS011;3527;52.376;8.990;2024-02-14T05:51:42;9.97;;;6.00;;
6973;SDS011;3527;52.376;8.990;2024-02-14T05:54:09;10.53;;;6.90;;
6973;SDS011;3527;52.376;8.990;2024-02-14T05:56:36;12.93;;;6.73;;
6973;SDS011;3527;52.376;8.990;2024-02-14T05:59:03;11.57;;;7.50;;
6973;SDS011;3527;52.376;8.990;2024-02-14T06:01:29;9.30;;;6.67;;
6973;SDS011;3527;52.376;8.990;2024-02-14T06:03:56;11.13;;;7.13;;
6973;SDS011;3527;52.376;8.990;2024-02-14T06:06:23;10.00;;;6.50;;
6973;SDS011;3527;52.376;8.990;2024-02-14T06:08:50;10.90;;;6.70;;
6973;SDS011;3527;52.376;8.990;2024-02-14T06:11:16;8.60;;;6.10;;
6973;SDS011;3527;52.376;8.990;2024-02-14T06:13:43;7.53;;;6.17;;
6973;SDS011;3527;52.376;8.990;2024-02-14T06:16:11;9.87;;;6.60;;
6973;SDS011;3527;52.376;8.990;2024-02-14T06:18:38;8.13;;;6.23;;
6973;SDS011;3527;52.376;8.990;2024-02-14T06:21:06;9.30;;;5.83;;
6973;SDS011;3527;52.376;8.990;2024-02-14T06:23:33;7.67;;;6.07;;
6973;SDS011;3527;52.376;8.990;2024-02-14T06:26:00;9.63;;;6.90;;
6973;SDS011;3527;52.376;8.990;2024-02-14T06:28:27;7.80;;;5.90;;
6973;SDS011;3527;52.376;8.990;2024-02-14T06:30:54;8.27;;;6.00;;
6973;SDS011;3527;52.376;8.990;2024-02-14T06:33:21;9.23;;;5.70;;
6973;SDS011;3527;52.376;8.990;2024-02-14T06:35:48;7.40;;;5.50;;
6973;SDS011;3527;52.376;8.990;2024-02-14T06:38:15;8.10;;;6.07;;
6973;SDS011;3527;52.376;8.990;2024-02-14T06:40:42;8.90;;;6.03;;
6973;SDS011;3527;52.376;8.990;2024-02-14T06:43:10;8.43;;;5.37;;
6973;SDS011;3527;52.376;8.990;2024-02-14T06:45:38;7.53;;;5.40;;
6973;SDS011;3527;52.376;8.990;2024-02-14T06:48:05;8.50;;;5.87;;
6973;SDS011;3527;52.376;8.990;2024-02-14T06:50:32;7.87;;;5.83;;
6973;SDS011;3527;52.376;8.990;2024-02-14T06:52:59;9.83;;;6.57;;
6973;SDS011;3527;52.376;8.990;2024-02-14T06:55:27;8.07;;;6.63;;
6973;SDS011;3527;52.376;8.990;2024-02-14T06:57:54;7.70;;;5.80;;
6973;SDS011;3527;52.376;8.990;2024-02-14T07:00:20;8.90;;;7.10;;
6973;SDS011;3527;52.376;8.990;2024-02-14T07:02:47;9.40;;;6.63;;
6973;SDS011;3527;52.376;8.990;2024-02-14T07:05:14;8.27;;;6.03;;
6973;SDS011;3527;52.376;8.990;2024-02-14T07:07:41;11.40;;;6.43;;
6973;SDS011;3527;52.376;8.990;2024-02-14T07:10:08;8.67;;;5.80;;
6973;SDS011;3527;52.376;8.990;2024-02-14T07:12:35;6.13;;;5.40;;
6973;SDS011;3527;52.376;8.990;2024-02-14T07:15:05;9.37;;;5.70;;
6973;SDS011;3527;52.376;8.990;2024-02-14T07:17:32;7.40;;;5.87;;
6973;SDS011;3527;52.376;8.990;2024-02-14T07:19:59;6.93;;;5.93;;
6973;SDS011;3527;52.376;8.990;2024-02-14T07:22:26;7.83;;;6.00;;
6973;SDS011;3527;52.376;8.990;2024-02-14T07:24:53;7.27;;;6.00;;
6973;SDS011;3527;52.376;8.990;2024-02-14T07:27:20;8.50;;;6.40;;
6973;SDS011;3527;52.376;8.990;2024-02-14T07:29:48;8.23;;;6.10;;
6973;SDS011;3527;52.376;8.990;2024-02-14T07:32:15;9.03;;;6.33;;
6973;SDS011;3527;52.376;8.990;2024-02-14T07:34:43;7.53;;;6.10;;
6973;SDS011;3527;52.376;8.990;2024-02-14T07:37:10;8.00;;;6.07;;
6973;SDS011;3527;52.376;8.990;2024-02-14T07:39:37;8.37;;;6.93;;
6973;SDS011;3527;52.376;8.990;2024-02-14T07:42:04;7.53;;;6.07;;
6973;SDS011;3527;52.376;8.990;2024-02-14T07:44:31;8.53;;;6.60;;
6973;SDS011;3527;52.376;8.990;2024-02-14T07:46:58;7.67;;;6.43;;
6973;SDS011;3527;52.376;8.990;2024-02-14T07:49:29;8.60;;;6.53;;
6973;SDS011;3527;52.376;8.990;2024-02-14T07:51:57;9.63;;;6.97;;
6973;SDS011;3527;52.376;8.990;2024-02-14T07:54:23;8.47;;;6.97;;
6973;SDS011;3527;52.376;8.990;2024-02-14T07:56:50;8.70;;;7.37;;
6973;SDS011;3527;52.376;8.990;2024-02-14T07:59:17;9.70;;;7.73;;
6973;SDS011;3527;52.376;8.990;2024-02-14T08:01:44;9.23;;;8.07;;
6973;SDS011;3527;52.376;8.990;2024-02-14T08:04:10;12.00;;;9.23;;
6973;SDS011;3527;52.376;8.990;2024-02-14T08:06:37;10.93;;;9.30;;
6973;SDS011;3527;52.376;8.990;2024-02-14T08:09:04;12.70;;;9.53;;
6973;SDS011;3527;52.376;8.990;2024-02-14T08:11:33;13.30;;;10.50;;
6973;SDS011;3527;52.376;8.990;2024-02-14T08:14:00;16.67;;;11.47;;
6973;SDS011;3527;52.376;8.990;2024-02-14T08:16:26;15.70;;;11.67;;
6973;SDS011;3527;52.376;8.990;2024-02-14T08:18:53;17.90;;;13.50;;
6973;SDS011;3527;52.376;8.990;2024-02-14T08:21:26;18.63;;;13.67;;
6973;SDS011;3527;52.376;8.990;2024-02-14T08:23:57;23.47;;;14.20;;
6973;SDS011;3527;52.376;8.990;2024-02-14T08:26:27;17.57;;;14.60;;
6973;SDS011;3527;52.376;8.990;2024-02-14T08:28:54;18.50;;;14.93;;
6973;SDS011;3527;52.376;8.990;2024-02-14T08:31:21;20.83;;;16.37;;
6973;SDS011;3527;52.376;8.990;2024-02-14T08:33:49;20.30;;;16.07;;
6973;SDS011;3527;52.376;8.990;2024-02-14T08:36:16;20.87;;;16.10;;
6973;SDS011;3527;52.376;8.990;2024-02-14T08:38:47;20.83;;;16.60;;
6973;SDS011;3527;52.376;8.990;2024-02-14T08:41:15;23.43;;;17.33;;
6973;SDS011;3527;52.376;8.990;2024-02-14T08:43:42;23.27;;;17.77;;
6973;SDS011;3527;52.376;8.990;2024-02-14T08:46:13;21.93;;;16.70;;
6973;SDS011;3527;52.376;8.990;2024-02-14T08:48:41;22.90;;;17.40;;
6973;SDS011;3527;52.376;8.990;2024-02-14T08:51:15;23.80;;;16.70;;
6973;SDS011;3527;52.376;8.990;2024-02-14T08:53:43;23.50;;;18.13;;
6973;SDS011;3527;52.376;8.990;2024-02-14T08:56:12;22.50;;;17.10;;
6973;SDS011;3527;52.376;8.990;2024-02-14T08:58:38;25.40;;;18.03;;
6973;SDS011;3527;52.376;8.990;2024-02-14T09:01:05;22.67;;;17.20;;
6973;SDS011;3527;52.376;8.990;2024-02-14T09:03:44;22.00;;;17.50;;
6973;SDS011;3527;52.376;8.990;2024-02-14T09:06:16;20.90;;;16.47;;
6973;SDS011;3527;52.376;8.990;2024-02-14T09:08:45;21.00;;;16.40;;
6973;SDS011;3527;52.376;8.990;2024-02-14T09:11:12;24.77;;;17.33;;
6973;SDS011;3527;52.376;8.990;2024-02-14T09:13:41;20.47;;;16.57;;
6973;SDS011;3527;52.376;8.990;2024-02-14T09:16:09;22.90;;;17.67;;
6973;SDS011;3527;52.376;8.990;2024-02-14T09:18:37;19.53;;;16.30;;
6973;SDS011;3527;52.376;8.990;2024-02-14T09:21:04;19.30;;;15.43;;
6973;SDS011;3527;52.376;8.990;2024-02-14T09:23:32;23.67;;;16.87;;
6973;SDS011;3527;52.376;8.990;2024-02-14T09:25:59;22.30;;;16.47;;
6973;SDS011;3527;52.376;8.990;2024-02-14T09:28:26;21.30;;;16.80;;
6973;SDS011;3527;52.376;8.990;2024-02-14T09:30:53;20.67;;;16.77;;
6973;SDS011;3527;52.376;8.990;2024-02-14T09:33:21;19.17;;;16.27;;
6973;SDS011;3527;52.376;8.990;2024-02-14T09:35:48;21.80;;;16.80;;
6973;SDS011;3527;52.376;8.990;2024-02-14T09:38:16;20.50;;;16.23;;
6973;SDS011;3527;52.376;8.990;2024-02-14T09:40:43;22.20;;;16.97;;
6973;SDS011;3527;52.376;8.990;2024-02-14T09:43:13;23.13;;;16.80;;
6973;SDS011;3527;52.376;8.990;2024-02-14T09:45:43;19.70;;;16.17;;
6973;SDS011;3527;52.376;8.990;2024-02-14T09:48:12;20.63;;;15.80;;
6973;SDS011;3527;52.376;8.990;2024-02-14T09:50:39;19.63;;;16.53;;
6973;SDS011;3527;52.376;8.990;2024-02-14T09:53:06;20.33;;;15.73;;
6973;SDS011;3527;52.376;8.990;2024-02-14T09:55:36;20.47;;;15.73;;
6973;SDS011;3527;52.376;8.990;2024-02-14T09:58:05;20.30;;;15.67;;
6973;SDS011;3527;52.376;8.990;2024-02-14T10:00:34;20.93;;;16.70;;
6973;SDS011;3527;52.376;8.990;2024-02-14T10:03:01;21.57;;;15.10;;
6973;SDS011;3527;52.376;8.990;2024-02-14T10:05:28;17.10;;;14.77;;
6973;SDS011;3527;52.376;8.990;2024-02-14T10:07:56;21.23;;;15.27;;
6973;SDS011;3527;52.376;8.990;2024-02-14T10:10:23;16.40;;;14.10;;
6973;SDS011;3527;52.376;8.990;2024-02-14T10:12:50;17.70;;;13.80;;
6973;SDS011;3527;52.376;8.990;2024-02-14T10:15:17;16.00;;;13.30;;
6973;SDS011;3527;52.376;8.990;2024-02-14T10:17:44;16.50;;;12.80;;
6973;SDS011;3527;52.376;8.990;2024-02-14T10:20:11;14.80;;;12.63;;
6973;SDS011;3527;52.376;8.990;2024-02-14T10:22:38;14.30;;;12.80;;
6973;SDS011;3527;52.376;8.990;2024-02-14T10:25:05;13.30;;;11.57;;
6973;SDS011;3527;52.376;8.990;2024-02-14T10:27:38;13.40;;;11.67;;
6973;SDS011;3527;52.376;8.990;2024-02-14T10:30:06;13.57;;;11.73;;
6973;SDS011;3527;52.376;8.990;2024-02-14T10:32:37;12.70;;;11.40;;
6973;SDS011;3527;52.376;8.990;2024-02-14T10:35:04;11.90;;;10.70;;
6973;SDS011;3527;52.376;8.990;2024-02-14T10:37:35;12.70;;;10.80;;
6973;SDS011;3527;52.376;8.990;2024-02-14T10:40:02;11.50;;;10.30;;
6973;SDS011;3527;52.376;8.990;2024-02-14T10:42:33;10.87;;;9.77;;
6973;SDS011;3527;52.376;8.990;2024-02-14T10:45:00;12.43;;;10.03;;
6973;SDS011;3527;52.376;8.990;2024-02-14T10:47:31;12.43;;;10.17;;
6973;SDS011;3527;52.376;8.990;2024-02-14T10:50:00;11.13;;;10.03;;
6973;SDS011;3527;52.376;8.990;2024-02-14T10:52:31;10.83;;;9.50;;
6973;SDS011;3527;52.376;8.990;2024-02-14T10:55:02;10.63;;;9.63;;
6973;SDS011;3527;52.376;8.990;2024-02-14T10:57:29;10.73;;;9.10;;
6973;SDS011;3527;52.376;8.990;2024-02-14T10:59:56;10.40;;;8.93;;
6973;SDS011;3527;52.376;8.990;2024-02-14T11:02:23;13.13;;;9.67;;
6973;SDS011;3527;52.376;8.990;2024-02-14T11:04:50;10.70;;;9.70;;
6973;SDS011;3527;52.376;8.990;2024-02-14T11:07:20;10.97;;;9.53;;
6973;SDS011;3527;52.376;8.990;2024-02-14T11:10:05;11.83;;;9.67;;
6973;SDS011;3527;52.376;8.990;2024-02-14T11:12:37;10.10;;;9.10;;
6973;SDS011;3527;52.376;8.990;2024-02-14T11:15:09;10.43;;;9.37;;
6973;SDS011;3527;52.376;8.990;2024-02-14T11:17:38;10.87;;;9.47;;
6973;SDS011;3527;52.376;8.990;2024-02-14T11:20:14;10.93;;;9.83;;
6973;SDS011;3527;52.376;8.990;2024-02-14T11:22:49;10.33;;;9.20;;
6973;SDS011;3527;52.376;8.990;2024-02-14T11:25:16;11.37;;;10.17;;
6973;SDS011;3527;52.376;8.990;2024-02-14T11:27:44;12.30;;;11.00;;
6973;SDS011;3527;52.376;8.990;2024-02-14T11:30:11;12.90;;;11.27;;
6973;SDS011;3527;52.376;8.990;2024-02-14T11:32:38;14.27;;;12.00;;
6973;SDS011;3527;52.376;8.990;2024-02-14T11:35:11;14.30;;;12.27;;
6973;SDS011;3527;52.376;8.990;2024-02-14T11:37:39;15.07;;;11.93;;
6973;SDS011;3527;52.376;8.990;2024-02-14T11:40:06;14.20;;;12.63;;
6973;SDS011;3527;52.376;8.990;2024-02-14T11:42:33;16.53;;;13.33;;
6973;SDS011;3527;52.376;8.990;2024-02-14T11:45:00;15.73;;;13.63;;
6973;SDS011;3527;52.376;8.990;2024-02-14T11:47:27;16.37;;;14.20;;
6973;SDS011;3527;52.376;8.990;2024-02-14T11:49:54;17.20;;;13.67;;
6973;SDS011;3527;52.376;8.990;2024-02-14T11:52:22;18.00;;;14.87;;
6973;SDS011;3527;52.376;8.990;2024-02-14T11:54:48;17.33;;;14.40;;
6973;SDS011;3527;52.376;8.990;2024-02-14T11:57:18;16.17;;;14.30;;
6973;SDS011;3527;52.376;8.990;2024-02-14T11:59:48;15.53;;;13.93;;
6973;SDS011;3527;52.376;8.990;2024-02-14T12:02:16;16.10;;;14.10;;
6973;SDS011;3527;52.376;8.990;2024-02-14T12:04:44;15.20;;;13.13;;
6973;SDS011;3527;52.376;8.990;2024-02-14T12:12:27;15.63;;;13.63;;
6973;SDS011;3527;52.376;8.990;2024-02-14T12:14:54;15.20;;;13.47;;
6973;SDS011;3527;52.376;8.990;2024-02-14T12:17:21;15.13;;;13.27;;
6973;SDS011;3527;52.376;8.990;2024-02-14T12:19:51;13.80;;;12.33;;
6973;SDS011;3527;52.376;8.990;2024-02-14T12:22:19;14.20;;;12.63;;
6973;SDS011;3527;52.376;8.990;2024-02-14T12:24:46;14.87;;;13.23;;
6973;SDS011;3527;52.376;8.990;2024-02-14T12:27:16;15.17;;;12.87;;
6973;SDS011;3527;52.376;8.990;2024-02-14T12:29:45;15.60;;;13.80;;
6973;SDS011;3527;52.376;8.990;2024-02-14T12:32:15;15.50;;;13.60;;
6973;SDS011;3527;52.376;8.990;2024-02-14T12:34:43;16.27;;;12.87;;
6973;SDS011;3527;52.376;8.990;2024-02-14T12:37:10;15.10;;;13.50;;
6973;SDS011;3527;52.376;8.990;2024-02-14T12:39:37;14.90;;;12.40;;
6973;SDS011;3527;52.376;8.990;2024-02-14T12:42:06;14.47;;;12.97;;
6973;SDS011;3527;52.376;8.990;2024-02-14T12:44:33;15.17;;;13.00;;
6973;SDS011;3527;52.376;8.990;2024-02-14T12:47:00;15.97;;;13.53;;
6973;SDS011;3527;52.376;8.990;2024-02-14T12:49:26;14.87;;;12.90;;
6973;SDS011;3527;52.376;8.990;2024-02-14T12:51:53;16.60;;;14.10;;
6973;SDS011;3527;52.376;8.990;2024-02-14T12:54:20;14.93;;;13.33;;
6973;SDS011;3527;52.376;8.990;2024-02-14T12:56:47;14.30;;;12.77;;
6973;SDS011;3527;52.376;8.990;2024-02-14T12:59:14;14.00;;;12.53;;
6973;SDS011;3527;52.376;8.990;2024-02-14T13:01:44;12.90;;;11.60;;
6973;SDS011;3527;52.376;8.990;2024-02-14T13:04:11;11.43;;;10.30;;
6973;SDS011;3527;52.376;8.990;2024-02-14T13:06:38;13.57;;;10.63;;
6973;SDS011;3527;52.376;8.990;2024-02-14T13:09:05;11.00;;;9.90;;
6973;SDS011;3527;52.376;8.990;2024-02-14T13:11:32;14.50;;;10.03;;
6973;SDS011;3527;52.376;8.990;2024-02-14T13:13:59;10.00;;;9.00;;
6973;SDS011;3527;52.376;8.990;2024-02-14T13:16:25;10.57;;;9.20;;
6973;SDS011;3527;52.376;8.990;2024-02-14T13:18:52;9.93;;;8.93;;
6973;SDS011;3527;52.376;8.990;2024-02-14T13:21:19;9.83;;;8.93;;
6973;SDS011;3527;52.376;8.990;2024-02-14T13:23:46;9.17;;;8.27;;
6973;SDS011;3527;52.376;8.990;2024-02-14T13:26:14;8.87;;;7.97;;
6973;SDS011;3527;52.376;8.990;2024-02-14T13:28:41;9.23;;;8.27;;
6973;SDS011;3527;52.376;8.990;2024-02-14T13:31:07;10.13;;;9.10;;
6973;SDS011;3527;52.376;8.990;2024-02-14T13:33:34;12.97;;;9.10;;
6973;SDS011;3527;52.376;8.990;2024-02-14T13:36:01;10.90;;;9.37;;
6973;SDS011;3527;52.376;8.990;2024-02-14T13:38:27;9.57;;;8.43;;
6973;SDS011;3527;52.376;8.990;2024-02-14T13:40:55;10.13;;;9.03;;
6973;SDS011;3527;52.376;8.990;2024-02-14T13:43:22;9.60;;;8.60;;
6973;SDS011;3527;52.376;8.990;2024-02-14T13:45:48;10.03;;;8.90;;
6973;SDS011;3527;52.376;8.990;2024-02-14T13:48:16;9.83;;;8.83;;
6973;SDS011;3527;52.376;8.990;2024-02-14T13:50:43;10.50;;;8.67;;
6973;SDS011;3527;52.376;8.990;2024-02-14T13:53:10;8.67;;;7.50;;
6973;SDS011;3527;52.376;8.990;2024-02-14T13:55:37;8.03;;;6.83;;
6973;SDS011;3527;52.376;8.990;2024-02-14T13:58:05;8.53;;;6.93;;
6973;SDS011;3527;52.376;8.990;2024-02-14T14:00:32;9.03;;;7.50;;
6973;SDS011;3527;52.376;8.990;2024-02-14T14:03:00;7.87;;;7.07;;
6973;SDS011;3527;52.376;8.990;2024-02-14T14:05:27;7.60;;;6.80;;
6973;SDS011;3527;52.376;8.990;2024-02-14T14:07:54;9.00;;;7.63;;
6973;SDS011;3527;52.376;8.990;2024-02-14T14:10:25;8.63;;;7.17;;
6973;SDS011;3527;52.376;8.990;2024-02-14T14:12:53;8.40;;;7.60;;
6973;SDS011;3527;52.376;8.990;2024-02-14T14:15:21;8.57;;;7.60;;
6973;SDS011;3527;52.376;8.990;2024-02-14T14:17:51;8.87;;;7.97;;
6973;SDS011;3527;52.376;8.990;2024-02-14T14:20:18;8.33;;;7.53;;
6973;SDS011;3527;52.376;8.990;2024-02-14T14:22:46;9.40;;;8.23;;
6973;SDS011;3527;52.376;8.990;2024-02-14T14:25:13;10.30;;;9.00;;
6973;SDS011;3527;52.376;8.990;2024-02-14T14:27:40;10.83;;;9.57;;
6973;SDS011;3527;52.376;8.990;2024-02-14T14:30:06;11.20;;;9.20;;
6973;SDS011;3527;52.376;8.990;2024-02-14T14:32:34;11.87;;;10.30;;
6973;SDS011;3527;52.376;8.990;2024-02-14T14:35:01;13.37;;;10.63;;
6973;SDS011;3527;52.376;8.990;2024-02-14T14:37:27;12.80;;;10.90;;
6973;SDS011;3527;52.376;8.990;2024-02-14T14:39:54;13.63;;;10.93;;
6973;SDS011;3527;52.376;8.990;2024-02-14T14:42:22;15.13;;;11.23;;
6973;SDS011;3527;52.376;8.990;2024-02-14T14:44:49;12.70;;;11.00;;
6973;SDS011;3527;52.376;8.990;2024-02-14T14:47:16;14.23;;;11.03;;
6973;SDS011;3527;52.376;8.990;2024-02-14T14:49:43;14.63;;;12.27;;
6973;SDS011;3527;52.376;8.990;2024-02-14T14:52:10;14.43;;;11.80;;
6973;SDS011;3527;52.376;8.990;2024-02-14T14:54:37;15.30;;;11.73;;
6973;SDS011;3527;52.376;8.990;2024-02-14T14:57:04;14.90;;;11.90;;
6973;SDS011;3527;52.376;8.990;2024-02-14T14:59:36;15.70;;;12.30;;
6973;SDS011;3527;52.376;8.990;2024-02-14T15:02:03;17.83;;;13.30;;
6973;SDS011;3527;52.376;8.990;2024-02-14T15:04:32;16.20;;;13.20;;
6973;SDS011;3527;52.376;8.990;2024-02-14T15:07:01;18.23;;;13.60;;
6973;SDS011;3527;52.376;8.990;2024-02-14T15:09:28;22.63;;;15.60;;
6973;SDS011;3527;52.376;8.990;2024-02-14T15:11:57;18.50;;;14.47;;
6973;SDS011;3527;52.376;8.990;2024-02-14T15:14:24;18.80;;;14.03;;